createdAt,value
2022-09-21T00:00:17.243Z,51.325722
2022-09-21T00:01:17.150Z,51.325733
2022-09-21T00:02:17.152Z,51.325771
2022-09-21T00:03:17.097Z,51.325832
2022-09-21T00:04:17.208Z,51.325745
2022-09-21T00:05:17.102Z,51.325718
2022-09-21T00:06:17.042Z,51.325783
2022-09-21T00:07:17.089Z,51.325733
2022-09-21T00:08:17.044Z,51.325756
2022-09-21T00:09:17.016Z,51.325783
2022-09-21T00:10:16.976Z,51.325752
2022-09-21T00:11:16.960Z,51.325726
2022-09-21T00:12:16.968Z,51.325684
2022-09-21T00:13:16.922Z,51.325741
2022-09-21T00:14:17.920Z,51.325745
2022-09-21T00:15:16.945Z,51.325737
2022-09-21T00:16:16.933Z,51.325714
2022-09-21T00:17:16.849Z,51.325706
2022-09-21T00:18:16.823Z,51.325695
2022-09-21T00:19:16.860Z,51.325657
2022-09-21T00:20:16.873Z,51.325695
2022-09-21T00:21:16.787Z,51.325657
2022-09-21T00:22:16.758Z,51.325687
2022-09-21T00:23:16.737Z,51.325691
2022-09-21T00:24:16.762Z,51.325729
2022-09-21T00:25:16.709Z,51.325748
2022-09-21T00:26:16.720Z,51.325733
2022-09-21T00:27:16.665Z,51.325706
2022-09-21T00:28:16.671Z,51.325672
2022-09-21T00:29:16.703Z,51.325684
2022-09-21T00:30:16.684Z,51.325741
2022-09-21T00:31:16.625Z,51.325729
2022-09-21T00:32:16.600Z,51.325748
2022-09-21T00:33:16.580Z,51.325726
2022-09-21T00:34:16.613Z,51.325729
2022-09-21T00:35:16.547Z,51.325760
2022-09-21T00:36:16.520Z,51.325783
2022-09-21T00:37:16.577Z,51.325775
2022-09-21T00:38:16.488Z,51.325756
2022-09-21T00:39:16.499Z,51.325764
2022-09-21T00:40:16.567Z,51.325764
2022-09-21T00:41:16.430Z,51.325775
2022-09-21T00:42:16.415Z,51.325764
2022-09-21T00:43:16.403Z,51.325752
2022-09-21T00:44:16.431Z,51.325718
2022-09-21T00:45:16.376Z,51.325764
2022-09-21T00:46:16.342Z,51.325768
2022-09-21T00:47:16.338Z,51.325748
2022-09-21T00:48:16.356Z,51.325733
2022-09-21T00:49:16.326Z,51.325710
2022-09-21T00:50:16.316Z,51.325741
2022-09-21T00:51:16.276Z,51.325768
2022-09-21T00:52:16.255Z,51.325756
2022-09-21T00:53:16.228Z,51.325748
2022-09-21T00:54:16.251Z,51.325745
2022-09-21T00:55:16.198Z,51.325752
2022-09-21T00:56:17.213Z,51.325756
2022-09-21T00:57:16.167Z,51.325748
2022-09-21T00:58:16.162Z,51.325775
2022-09-21T00:59:17.432Z,51.325748
2022-09-21T01:00:16.195Z,51.325764
2022-09-21T01:01:16.181Z,51.325752
2022-09-21T01:02:16.094Z,51.325722
2022-09-21T01:03:16.064Z,51.325729
2022-09-21T01:04:16.066Z,51.325718
2022-09-21T01:05:16.018Z,51.325771
2022-09-21T01:06:16.008Z,51.325729
2022-09-21T01:07:15.977Z,51.325687
2022-09-21T01:08:15.980Z,51.325741
2022-09-21T01:09:15.985Z,51.325737
2022-09-21T01:10:16.038Z,51.325775
2022-09-21T01:11:15.913Z,51.325768
2022-09-21T01:12:15.903Z,51.325729
2022-09-21T01:13:15.886Z,51.325714
2022-09-21T01:14:15.889Z,51.325729
2022-09-21T01:15:15.864Z,51.325729
2022-09-21T01:16:15.861Z,51.325760
2022-09-21T01:17:15.812Z,51.325729
2022-09-21T01:18:15.792Z,51.325760
2022-09-21T01:19:15.807Z,51.325768
2022-09-21T01:20:15.803Z,51.325787
2022-09-21T01:21:15.778Z,51.325813
2022-09-21T01:22:15.719Z,51.325825
2022-09-21T01:23:15.718Z,51.325760
2022-09-21T01:24:15.729Z,51.325718
2022-09-21T01:25:15.684Z,51.325691
2022-09-21T01:26:15.666Z,51.325684
2022-09-21T01:27:15.661Z,51.325706
2022-09-21T01:28:15.628Z,51.325783
2022-09-21T01:29:15.637Z,51.325787
2022-09-21T01:30:15.634Z,51.325771
2022-09-21T01:31:15.606Z,51.325737
2022-09-21T01:32:15.751Z,51.325745
2022-09-21T01:33:15.536Z,51.325756
2022-09-21T01:34:15.547Z,51.325798
2022-09-21T01:35:15.509Z,51.325752
2022-09-21T01:36:15.492Z,51.325745
2022-09-21T01:37:15.479Z,51.325752
2022-09-21T01:38:15.459Z,51.325775
2022-09-21T01:39:15.485Z,51.325771
2022-09-21T01:40:15.517Z,51.325741
2022-09-21T01:41:15.404Z,51.325726
2022-09-21T01:42:15.392Z,51.325710
2022-09-21T01:43:15.501Z,51.325756
2022-09-21T01:44:15.373Z,51.325695
2022-09-21T01:45:15.374Z,51.325748
2022-09-21T01:46:15.316Z,51.325760
2022-09-21T01:47:15.315Z,51.325752
2022-09-21T01:48:15.284Z,51.325741
2022-09-21T01:49:15.291Z,51.325748
2022-09-21T01:50:15.344Z,51.325741
2022-09-21T01:51:15.238Z,51.325771
2022-09-21T01:52:15.199Z,51.325771
2022-09-21T01:53:15.189Z,51.325748
2022-09-21T01:54:15.215Z,51.325768
2022-09-21T01:55:15.174Z,51.325783
2022-09-21T01:56:15.128Z,51.325821
2022-09-21T01:57:15.134Z,51.325783
2022-09-21T01:58:15.096Z,51.325748
2022-09-21T01:59:15.127Z,51.325752
2022-09-21T02:00:15.074Z,51.325745
2022-09-21T02:01:15.111Z,51.325718
2022-09-21T02:02:15.089Z,51.325729
2022-09-21T02:03:15.021Z,51.325714
2022-09-21T02:04:14.997Z,51.325718
2022-09-21T02:05:15.053Z,51.325745
2022-09-21T02:06:14.960Z,51.325737
2022-09-21T02:07:14.948Z,51.325699
2022-09-21T02:08:14.920Z,51.325684
2022-09-21T02:09:14.909Z,51.325703
2022-09-21T02:10:15.022Z,51.325748
2022-09-21T02:11:14.886Z,51.325710
2022-09-21T02:12:18.873Z,51.325741
2022-09-21T02:13:15.831Z,51.325748
2022-09-21T02:14:14.819Z,51.325741
2022-09-21T02:15:14.844Z,51.325718
2022-09-21T02:16:14.840Z,51.325768
2022-09-21T02:17:14.774Z,51.325737
2022-09-21T02:18:14.768Z,51.325752
2022-09-21T02:19:14.739Z,51.325741
2022-09-21T02:20:14.860Z,51.325733
2022-09-21T02:21:14.701Z,51.325764
2022-09-21T02:22:14.695Z,51.325752
2022-09-21T02:23:14.670Z,51.325733
2022-09-21T02:24:14.688Z,51.325714
2022-09-21T02:25:14.669Z,51.325695
2022-09-21T02:26:14.637Z,51.325691
2022-09-21T02:27:14.648Z,51.325760
2022-09-21T02:28:14.594Z,51.325756
2022-09-21T02:29:14.596Z,51.325768
2022-09-21T02:30:14.594Z,51.325771
2022-09-21T02:31:14.560Z,51.325802
2022-09-21T02:32:14.516Z,51.325752
2022-09-21T02:33:14.511Z,51.325768
2022-09-21T02:34:14.516Z,51.325760
2022-09-21T02:35:14.481Z,51.325729
2022-09-21T02:36:14.454Z,51.325756
2022-09-21T02:37:14.438Z,51.325729
2022-09-21T02:38:14.453Z,51.325741
2022-09-21T02:39:14.428Z,51.325733
2022-09-21T02:40:14.430Z,51.325726
2022-09-21T02:41:14.378Z,51.325752
2022-09-21T02:42:14.354Z,51.325771
2022-09-21T02:43:14.329Z,51.325771
2022-09-21T02:44:14.338Z,51.325748
2022-09-21T02:45:14.311Z,51.325741
2022-09-21T02:46:14.323Z,51.325691
2022-09-21T02:47:14.255Z,51.325737
2022-09-21T02:48:14.261Z,51.325760
2022-09-21T02:49:14.287Z,51.325768
2022-09-21T02:50:14.237Z,51.325752
2022-09-21T02:51:14.194Z,51.325726
2022-09-21T02:52:14.178Z,51.325726
2022-09-21T02:53:14.155Z,51.325745
2022-09-21T02:54:14.184Z,51.325722
2022-09-21T02:55:14.138Z,51.325710
2022-09-21T02:56:14.108Z,51.325718
2022-09-21T02:57:14.093Z,51.325710
2022-09-21T02:58:14.067Z,51.325703
2022-09-21T02:59:14.087Z,51.325703
2022-09-21T03:00:14.043Z,51.325726
2022-09-21T03:01:14.013Z,51.325733
2022-09-21T03:02:14.046Z,51.325733
2022-09-21T03:03:13.977Z,51.325729
2022-09-21T03:04:14.000Z,51.325737
2022-09-21T03:05:13.960Z,51.325733
2022-09-21T03:06:13.935Z,51.325745
2022-09-21T03:07:13.928Z,51.325737
2022-09-21T03:08:13.903Z,51.325748
2022-09-21T03:09:13.901Z,51.325729
2022-09-21T03:10:13.872Z,51.325691
2022-09-21T03:11:13.922Z,51.325588
2022-09-21T03:12:13.871Z,51.325661
2022-09-21T03:13:13.818Z,51.325714
2022-09-21T03:14:13.823Z,51.325771
2022-09-21T03:15:13.780Z,51.325745
2022-09-21T03:16:13.791Z,51.325764
2022-09-21T03:17:13.742Z,51.325771
2022-09-21T03:18:13.727Z,51.325760
2022-09-21T03:19:13.742Z,51.325756
2022-09-21T03:20:13.714Z,51.325722
2022-09-21T03:21:13.691Z,51.325760
2022-09-21T03:22:13.690Z,51.325775
2022-09-21T03:23:13.633Z,51.325764
2022-09-21T03:24:13.633Z,51.325752
2022-09-21T03:25:13.595Z,51.325733
2022-09-21T03:26:13.590Z,51.325775
2022-09-21T03:27:13.558Z,51.325741
2022-09-21T03:28:13.539Z,51.325729
2022-09-21T03:29:13.569Z,51.325722
2022-09-21T03:30:13.530Z,51.325745
2022-09-21T03:31:13.510Z,51.325737
2022-09-21T03:32:13.476Z,51.325745
2022-09-21T03:33:13.471Z,51.325748
2022-09-21T03:34:14.475Z,51.325748
2022-09-21T03:35:13.421Z,51.325745
2022-09-21T03:36:13.427Z,51.325748
2022-09-21T03:37:13.379Z,51.325771
2022-09-21T03:38:14.384Z,51.325741
2022-09-21T03:39:13.403Z,51.325718
2022-09-21T03:40:13.481Z,51.325726
2022-09-21T03:41:14.323Z,51.325733
2022-09-21T03:42:13.310Z,51.325729
2022-09-21T03:43:13.306Z,51.325760
2022-09-21T03:44:13.334Z,51.325748
2022-09-21T03:45:13.241Z,51.325756
2022-09-21T03:46:13.262Z,51.325733
2022-09-21T03:47:13.231Z,51.325748
2022-09-21T03:48:13.204Z,51.325768
2022-09-21T03:49:13.212Z,51.325764
2022-09-21T03:50:13.227Z,51.325722
2022-09-21T03:51:13.154Z,51.325756
2022-09-21T03:52:13.207Z,51.325756
2022-09-21T03:53:13.130Z,51.325726
2022-09-21T03:54:13.123Z,51.325760
2022-09-21T03:55:13.136Z,51.325741
2022-09-21T03:56:13.056Z,51.325729
2022-09-21T03:57:13.042Z,51.325741
2022-09-21T03:58:13.046Z,51.325722
2022-09-21T03:59:14.374Z,51.325752
2022-09-21T04:00:14.042Z,51.325760
2022-09-21T04:01:13.004Z,51.325771
2022-09-21T04:02:12.952Z,51.325794
2022-09-21T04:03:12.953Z,51.325771
2022-09-21T04:04:12.952Z,51.325768
2022-09-21T04:05:12.904Z,51.325741
2022-09-21T04:06:12.926Z,51.325741
2022-09-21T04:07:12.863Z,51.325752
2022-09-21T04:08:12.860Z,51.325752
2022-09-21T04:09:12.875Z,51.325760
2022-09-21T04:10:12.939Z,51.325768
2022-09-21T04:11:12.801Z,51.325733
2022-09-21T04:12:12.789Z,51.325771
2022-09-21T04:13:12.763Z,51.325771
2022-09-21T04:14:12.778Z,51.325741
2022-09-21T04:15:12.786Z,51.325737
2022-09-21T04:16:12.760Z,51.325722
2022-09-21T04:17:12.696Z,51.325699
2022-09-21T04:18:12.676Z,51.325794
2022-09-21T04:19:12.704Z,51.325718
2022-09-21T04:20:12.662Z,51.325729
2022-09-21T04:21:12.655Z,51.325783
2022-09-21T04:22:12.609Z,51.325779
2022-09-21T04:23:12.603Z,51.325642
2022-09-21T04:24:12.621Z,51.325733
2022-09-21T04:25:12.567Z,51.325825
2022-09-21T04:26:12.572Z,51.325798
2022-09-21T04:27:12.528Z,51.325760
2022-09-21T04:28:12.504Z,51.325726
2022-09-21T04:29:12.507Z,51.325741
2022-09-21T04:30:12.523Z,51.325756
2022-09-21T04:31:12.482Z,51.325756
2022-09-21T04:32:12.455Z,51.325802
2022-09-21T04:33:12.420Z,51.325809
2022-09-21T04:34:12.440Z,51.325813
2022-09-21T04:35:12.383Z,51.325779
2022-09-21T04:36:12.356Z,51.325798
2022-09-21T04:37:12.343Z,51.325806
2022-09-21T04:38:12.340Z,51.325768
2022-09-21T04:39:12.356Z,51.325794
2022-09-21T04:40:12.385Z,51.325813
2022-09-21T04:41:12.277Z,51.325817
2022-09-21T04:42:12.271Z,51.325813
2022-09-21T04:43:12.257Z,51.325859
2022-09-21T04:44:12.265Z,51.325890
2022-09-21T04:45:12.245Z,51.325912
2022-09-21T04:46:12.259Z,51.325909
2022-09-21T04:47:12.184Z,51.325836
2022-09-21T04:48:12.163Z,51.325836
2022-09-21T04:49:12.192Z,51.325848
2022-09-21T04:50:12.176Z,51.325825
2022-09-21T04:51:12.107Z,51.325912
2022-09-21T04:52:14.761Z,51.325848
2022-09-21T04:53:13.081Z,51.325844
2022-09-21T04:54:12.052Z,51.325802
2022-09-21T04:55:12.079Z,51.325771
2022-09-21T04:56:12.019Z,51.325787
2022-09-21T04:57:11.999Z,51.325832
2022-09-21T04:58:11.983Z,51.325764
2022-09-21T04:59:11.978Z,51.325722
2022-09-21T05:00:11.994Z,51.325859
2022-09-21T05:01:12.044Z,51.325768
2022-09-21T05:02:11.920Z,51.325722
2022-09-21T05:03:11.992Z,51.325790
2022-09-21T05:04:11.885Z,51.325752
2022-09-21T05:05:11.896Z,51.325794
2022-09-21T05:06:11.844Z,51.325832
2022-09-21T05:07:11.846Z,51.325840
2022-09-21T05:08:11.822Z,51.325832
2022-09-21T05:09:11.798Z,51.325836
2022-09-21T05:10:11.805Z,51.325836
2022-09-21T05:11:11.767Z,51.325844
2022-09-21T05:12:11.766Z,51.325840
2022-09-21T05:13:11.726Z,51.325817
2022-09-21T05:14:11.725Z,51.325817
2022-09-21T05:15:11.739Z,51.325821
2022-09-21T05:16:11.700Z,51.325813
2022-09-21T05:17:11.654Z,51.325802
2022-09-21T05:18:11.658Z,51.325794
2022-09-21T05:19:11.618Z,51.325779
2022-09-21T05:20:11.659Z,51.325783
2022-09-21T05:21:11.599Z,51.325771
2022-09-21T05:22:11.576Z,51.325760
2022-09-21T05:23:16.143Z,51.325760
2022-09-21T05:24:13.570Z,51.325798
2022-09-21T05:25:11.551Z,51.325768
2022-09-21T05:26:11.509Z,51.325794
2022-09-21T05:27:11.484Z,51.325771
2022-09-21T05:28:11.530Z,51.325775
2022-09-21T05:29:11.447Z,51.325779
2022-09-21T05:30:11.481Z,51.325829
2022-09-21T05:31:17.659Z,51.325798
2022-09-21T05:32:13.395Z,51.325741
2022-09-21T05:33:11.380Z,51.325737
2022-09-21T05:34:11.430Z,51.325657
2022-09-21T05:35:11.410Z,51.325733
2022-09-21T05:36:11.348Z,51.325756
2022-09-21T05:37:11.326Z,51.325771
2022-09-21T05:38:11.310Z,51.325768
2022-09-21T05:39:11.295Z,51.325737
2022-09-21T05:40:11.356Z,51.325748
2022-09-21T05:41:11.250Z,51.325809
2022-09-21T05:42:11.226Z,51.325867
2022-09-21T05:43:11.263Z,51.325756
2022-09-21T05:44:11.194Z,51.325752
2022-09-21T05:45:11.496Z,51.325722
2022-09-21T05:46:11.240Z,51.325726
2022-09-21T05:47:11.146Z,51.325745
2022-09-21T05:48:11.119Z,51.325741
2022-09-21T05:49:11.104Z,51.325760
2022-09-21T05:50:11.207Z,51.325764
2022-09-21T05:51:11.078Z,51.325798
2022-09-21T05:52:11.049Z,51.325733
2022-09-21T05:53:11.031Z,51.325733
2022-09-21T05:54:11.022Z,51.325752
2022-09-21T05:55:11.043Z,51.325741
2022-09-21T05:56:10.999Z,51.325787
2022-09-21T05:57:10.968Z,51.325764
2022-09-21T05:58:10.961Z,51.325752
2022-09-21T05:59:10.943Z,51.325760
2022-09-21T06:00:10.941Z,51.325726
2022-09-21T06:01:10.924Z,51.325748
2022-09-21T06:02:10.904Z,51.325760
2022-09-21T06:03:15.539Z,51.325817
2022-09-21T06:04:12.844Z,51.325787
2022-09-21T06:05:10.876Z,51.325768
2022-09-21T06:06:10.828Z,51.325775
2022-09-21T06:07:10.812Z,51.325798
2022-09-21T06:08:10.797Z,51.325722
2022-09-21T06:09:10.804Z,51.325665
2022-09-21T06:10:10.803Z,51.325722
2022-09-21T06:11:10.733Z,51.325729
2022-09-21T06:12:10.711Z,51.325653
2022-09-21T06:13:10.710Z,51.325676
2022-09-21T06:14:10.676Z,51.325741
2022-09-21T06:15:10.692Z,51.325703
2022-09-21T06:16:10.637Z,51.325680
2022-09-21T06:17:10.626Z,51.325687
2022-09-21T06:18:14.272Z,51.325703
2022-09-21T06:19:12.590Z,51.325741
2022-09-21T06:20:11.769Z,51.325737
2022-09-21T06:21:10.558Z,51.325741
2022-09-21T06:22:10.561Z,51.325733
2022-09-21T06:23:10.537Z,51.325726
2022-09-21T06:24:10.505Z,51.325733
2022-09-21T06:25:10.550Z,51.325733
2022-09-21T06:26:10.480Z,51.325764
2022-09-21T06:27:10.457Z,51.325756
2022-09-21T06:28:10.488Z,51.325726
2022-09-21T06:29:10.423Z,51.325726
2022-09-21T06:30:10.434Z,51.325718
2022-09-21T06:31:10.521Z,51.325737
2022-09-21T06:32:10.377Z,51.325718
2022-09-21T06:33:10.352Z,51.325722
2022-09-21T06:34:10.338Z,51.325722
2022-09-21T06:35:10.351Z,51.325737
2022-09-21T06:36:10.303Z,51.325729
2022-09-21T06:37:10.307Z,51.325710
2022-09-21T06:38:10.274Z,51.325718
2022-09-21T06:39:10.269Z,51.325706
2022-09-21T06:40:10.334Z,51.325703
2022-09-21T06:41:10.238Z,51.325703
2022-09-21T06:42:10.218Z,51.325691
2022-09-21T06:43:11.234Z,51.325687
2022-09-21T06:44:10.183Z,51.325684
2022-09-21T06:45:10.214Z,51.325699
2022-09-21T06:46:10.194Z,51.325703
2022-09-21T06:47:10.144Z,51.325718
2022-09-21T06:48:10.130Z,51.325714
2022-09-21T06:49:10.102Z,51.325745
2022-09-21T06:50:10.134Z,51.325699
2022-09-21T06:51:10.075Z,51.325668
2022-09-21T06:52:10.060Z,51.325676
2022-09-21T06:53:10.057Z,51.325695
2022-09-21T06:54:10.026Z,51.325718
2022-09-21T06:55:10.043Z,51.325718
2022-09-21T06:56:10.004Z,51.325783
2022-09-21T06:57:09.995Z,51.325703
2022-09-21T06:58:10.807Z,51.325672
2022-09-21T06:59:09.956Z,51.325668
2022-09-21T07:00:09.986Z,51.325703
2022-09-21T07:01:10.090Z,51.325768
2022-09-21T07:02:10.017Z,51.325726
2022-09-21T07:03:09.890Z,51.325710
2022-09-21T07:04:09.876Z,51.325695
2022-09-21T07:05:09.901Z,51.325634
2022-09-21T07:06:09.861Z,51.325741
2022-09-21T07:07:10.847Z,51.325718
2022-09-21T07:10:05.095Z,51.325699
2022-09-21T07:10:15.859Z,51.325699
2022-09-21T07:11:11.805Z,51.325687
2022-09-21T07:12:09.758Z,51.325668
2022-09-21T07:13:09.745Z,51.325638
2022-09-21T07:14:09.741Z,51.325619
2022-09-21T07:15:09.751Z,51.325657
2022-09-21T07:16:09.719Z,51.325653
2022-09-21T07:17:15.203Z,51.325665
2022-09-21T07:18:10.646Z,51.325680
2022-09-21T07:19:11.797Z,51.325699
2022-09-21T07:20:10.664Z,51.325710
2022-09-21T07:21:09.612Z,51.325726
2022-09-21T07:22:09.603Z,51.325726
2022-09-21T07:23:09.569Z,51.325695
2022-09-21T07:24:12.243Z,51.325718
2022-09-21T07:25:10.589Z,51.325775
2022-09-21T07:26:09.532Z,51.325745
2022-09-21T07:27:09.533Z,51.325714
2022-09-21T07:28:09.496Z,51.325718
2022-09-21T07:29:09.500Z,51.325706
2022-09-21T07:30:09.505Z,51.325687
2022-09-21T07:31:09.456Z,51.325672
2022-09-21T07:32:09.485Z,51.325684
2022-09-21T07:33:09.434Z,51.325672
2022-09-21T07:34:09.421Z,51.325668
2022-09-21T07:35:09.434Z,51.325638
2022-09-21T07:36:09.385Z,51.325691
2022-09-21T07:37:09.377Z,51.325706
2022-09-21T07:38:09.369Z,51.325699
2022-09-21T07:39:09.354Z,51.325680
2022-09-21T07:40:09.409Z,51.325714
2022-09-21T07:41:09.312Z,51.325741
2022-09-21T07:42:09.287Z,51.325741
2022-09-21T07:43:09.277Z,51.325741
2022-09-21T07:44:09.271Z,51.325741
2022-09-21T07:45:09.285Z,51.325722
2022-09-21T07:46:09.317Z,51.325741
2022-09-21T07:47:09.232Z,51.325748
2022-09-21T07:48:09.208Z,51.325737
2022-09-21T07:49:09.222Z,51.325790
2022-09-21T07:50:09.219Z,51.325790
2022-09-21T07:51:09.172Z,51.325741
2022-09-21T07:52:11.030Z,51.325737
2022-09-21T07:53:10.134Z,51.325737
2022-09-21T07:54:09.113Z,51.325737
2022-09-21T07:55:09.152Z,51.325741
2022-09-21T07:56:09.091Z,51.325768
2022-09-21T07:57:09.074Z,51.325752
2022-09-21T07:58:09.064Z,51.325790
2022-09-21T07:59:09.049Z,51.325760
2022-09-21T08:00:09.068Z,51.325790
2022-09-21T08:01:09.076Z,51.325764
2022-09-21T08:02:09.048Z,51.325806
2022-09-21T08:03:09.019Z,51.325752
2022-09-21T08:04:09.136Z,51.325706
2022-09-21T08:05:10.026Z,51.325733
2022-09-21T08:06:08.943Z,51.325722
2022-09-21T08:07:08.932Z,51.325745
2022-09-21T08:08:08.918Z,51.325733
2022-09-21T08:09:08.943Z,51.325714
2022-09-21T08:10:08.929Z,51.325745
2022-09-21T08:11:08.885Z,51.325729
2022-09-21T08:12:08.862Z,51.325737
2022-09-21T08:13:08.843Z,51.325741
2022-09-21T08:14:08.828Z,51.325748
2022-09-21T08:15:20.408Z,51.325745
2022-09-21T08:16:10.860Z,51.325756
2022-09-21T08:17:08.796Z,51.325752
2022-09-21T08:18:08.770Z,51.325748
2022-09-21T08:19:08.800Z,51.325745
2022-09-21T08:20:08.768Z,51.325741
2022-09-21T08:21:08.735Z,51.325737
2022-09-21T08:22:08.731Z,51.325726
2022-09-21T08:23:08.702Z,51.325726
2022-09-21T08:24:08.693Z,51.325733
2022-09-21T08:25:08.708Z,51.325737
2022-09-21T08:26:08.654Z,51.325737
2022-09-21T08:27:08.651Z,51.325729
2022-09-21T08:28:10.058Z,51.325729
2022-09-21T08:29:09.612Z,51.325714
2022-09-21T08:30:08.601Z,51.325726
2022-09-21T08:31:08.696Z,51.325726
2022-09-21T08:32:08.638Z,51.325722
2022-09-21T08:33:08.563Z,51.325722
2022-09-21T08:34:08.597Z,51.325703
2022-09-21T08:35:08.541Z,51.325695
2022-09-21T08:36:08.554Z,51.325722
2022-09-21T08:37:08.515Z,51.325729
2022-09-21T08:38:08.499Z,51.325718
2022-09-21T08:39:08.490Z,51.325706
2022-09-21T08:40:08.595Z,51.325703
2022-09-21T08:41:08.521Z,51.325726
2022-09-21T08:42:08.432Z,51.325726
2022-09-21T08:43:08.419Z,51.325737
2022-09-21T08:44:08.460Z,51.325741
2022-09-21T08:45:08.394Z,51.325726
2022-09-21T08:46:08.412Z,51.325706
2022-09-21T08:47:08.356Z,51.325714
2022-09-21T08:48:08.358Z,51.325726
2022-09-21T08:49:08.351Z,51.325729
2022-09-21T08:50:08.364Z,51.325726
2022-09-21T08:51:08.333Z,51.325726
2022-09-21T08:52:08.296Z,51.325729
2022-09-21T08:53:08.278Z,51.325684
2022-09-21T08:54:08.275Z,51.325661
2022-09-21T08:55:08.252Z,51.325726
2022-09-21T08:56:08.290Z,51.325737
2022-09-21T08:57:08.233Z,51.325745
2022-09-21T08:58:08.213Z,51.325726
2022-09-21T08:59:08.233Z,51.325714
2022-09-21T09:00:08.176Z,51.325729
2022-09-21T09:01:08.236Z,51.325718
2022-09-21T09:02:08.298Z,51.325703
2022-09-21T09:03:08.137Z,51.325695
2022-09-21T09:04:08.204Z,51.325714
2022-09-21T09:05:08.109Z,51.325718
2022-09-21T09:06:08.127Z,51.325756
2022-09-21T09:07:08.081Z,51.325729
2022-09-21T09:08:08.073Z,51.325745
2022-09-21T09:09:08.145Z,51.325733
2022-09-21T09:10:08.064Z,51.325729
2022-09-21T09:11:08.045Z,51.325726
2022-09-21T09:12:10.991Z,51.325729
2022-09-21T09:13:08.993Z,51.325745
2022-09-21T09:14:07.972Z,51.325722
2022-09-21T09:15:07.970Z,51.325737
2022-09-21T09:16:08.008Z,51.325764
2022-09-21T09:17:07.934Z,51.325733
2022-09-21T09:18:07.934Z,51.325737
2022-09-21T09:19:07.906Z,51.325737
2022-09-21T09:20:07.896Z,51.325741
2022-09-21T09:21:07.910Z,51.325745
2022-09-21T09:22:07.866Z,51.325733
2022-09-21T09:23:07.853Z,51.325741
2022-09-21T09:24:07.890Z,51.325733
2022-09-21T09:25:07.834Z,51.325737
2022-09-21T09:26:07.838Z,51.325748
2022-09-21T09:27:07.855Z,51.325741
2022-09-21T09:28:07.775Z,51.325745
2022-09-21T09:29:07.759Z,51.325718
2022-09-21T09:30:07.770Z,51.325737
2022-09-21T09:31:07.820Z,51.325745
2022-09-21T09:32:07.788Z,51.325752
2022-09-21T09:33:07.711Z,51.325745
2022-09-21T09:34:07.702Z,51.325745
2022-09-21T09:35:07.691Z,51.325752
2022-09-21T09:36:07.698Z,51.325741
2022-09-21T09:37:08.652Z,51.325748
2022-09-21T09:38:07.672Z,51.325745
2022-09-21T09:39:07.669Z,51.325768
2022-09-21T09:40:07.668Z,51.325764
2022-09-21T09:41:07.635Z,51.325779
2022-09-21T09:42:07.588Z,51.325760
2022-09-21T09:43:07.576Z,51.325760
2022-09-21T09:44:07.595Z,51.325775
2022-09-21T09:45:07.554Z,51.325760
2022-09-21T09:46:11.205Z,51.325733
2022-09-21T09:47:08.601Z,51.325718
2022-09-21T09:48:07.541Z,51.325748
2022-09-21T09:49:07.508Z,51.325710
2022-09-21T09:50:07.509Z,51.325748
2022-09-21T09:51:07.501Z,51.325745
2022-09-21T09:52:07.469Z,51.325729
2022-09-21T09:53:07.436Z,51.325722
2022-09-21T09:54:10.226Z,51.325737
2022-09-21T09:55:08.411Z,51.325737
2022-09-21T09:56:07.432Z,51.325752
2022-09-21T09:57:08.384Z,51.325752
2022-09-21T09:58:07.370Z,51.325764
2022-09-21T09:59:07.360Z,51.325760
2022-09-21T10:00:07.350Z,51.325745
2022-09-21T10:01:07.359Z,51.325741
2022-09-21T10:02:07.429Z,51.325722
2022-09-21T10:03:07.303Z,51.325733
2022-09-21T10:04:07.543Z,51.325733
2022-09-21T10:05:07.291Z,51.325756
2022-09-21T10:06:07.314Z,51.325752
2022-09-21T10:07:07.269Z,51.325745
2022-09-21T10:08:07.229Z,51.325737
2022-09-21T10:09:07.316Z,51.325733
2022-09-21T10:10:07.230Z,51.325748
2022-09-21T10:11:07.274Z,51.325748
2022-09-21T10:12:10.375Z,51.325745
2022-09-21T10:13:08.167Z,51.325729
2022-09-21T10:14:07.157Z,51.325764
2022-09-21T10:15:07.145Z,51.325733
2022-09-21T10:16:07.219Z,51.325741
2022-09-21T10:17:07.120Z,51.325764
2022-09-21T10:18:07.092Z,51.325737
2022-09-21T10:19:07.098Z,51.325722
2022-09-21T10:20:07.054Z,51.325760
2022-09-21T10:21:07.112Z,51.325760
2022-09-21T10:22:07.042Z,51.325768
2022-09-21T10:23:07.041Z,51.325741
2022-09-21T10:24:07.013Z,51.325748
2022-09-21T10:25:06.991Z,51.325748
2022-09-21T10:26:07.028Z,51.325741
2022-09-21T10:27:07.007Z,51.325741
2022-09-21T10:28:06.947Z,51.325729
2022-09-21T10:29:07.018Z,51.325733
2022-09-21T10:30:06.917Z,51.325748
2022-09-21T10:31:06.972Z,51.325737
2022-09-21T10:32:10.000Z,51.325752
2022-09-21T10:33:07.886Z,51.325745
2022-09-21T10:34:06.906Z,51.325737
2022-09-21T10:35:06.841Z,51.325768
2022-09-21T10:36:06.860Z,51.325745
2022-09-21T10:37:06.813Z,51.325733
2022-09-21T10:38:06.800Z,51.325722
2022-09-21T10:39:06.784Z,51.325714
2022-09-21T10:40:06.813Z,51.325737
2022-09-21T10:41:06.788Z,51.325718
2022-09-21T10:42:06.753Z,51.325741
2022-09-21T10:43:06.730Z,51.325768
2022-09-21T10:44:06.709Z,51.325733
2022-09-21T10:45:06.708Z,51.325745
2022-09-21T10:46:06.743Z,51.325710
2022-09-21T10:47:06.672Z,51.325733
2022-09-21T10:48:06.665Z,51.325733
2022-09-21T10:49:06.689Z,51.325798
2022-09-21T10:50:06.626Z,51.325745
2022-09-21T10:51:06.660Z,51.325756
2022-09-21T10:52:06.603Z,51.325726
2022-09-21T10:53:06.583Z,51.325752
2022-09-21T10:54:06.699Z,51.325722
2022-09-21T10:55:06.585Z,51.325722
2022-09-21T10:56:18.615Z,51.325726
2022-09-21T10:57:08.515Z,51.325748
2022-09-21T10:58:06.501Z,51.325745
2022-09-21T10:59:06.486Z,51.325729
2022-09-21T11:00:06.497Z,51.325726
2022-09-21T11:01:06.490Z,51.325764
2022-09-21T11:02:06.574Z,51.325752
2022-09-21T11:03:06.491Z,51.325737
2022-09-21T11:04:06.578Z,51.325748
2022-09-21T11:05:06.427Z,51.325737
2022-09-21T11:06:06.378Z,51.325733
2022-09-21T11:07:06.360Z,51.325756
2022-09-21T11:08:06.382Z,51.325771
2022-09-21T11:09:06.338Z,51.325745
2022-09-21T11:10:06.355Z,51.325737
2022-09-21T11:11:06.310Z,51.325745
2022-09-21T11:12:06.287Z,51.325741
2022-09-21T11:13:06.269Z,51.325741
2022-09-21T11:14:06.257Z,51.325748
2022-09-21T11:15:06.282Z,51.325756
2022-09-21T11:16:06.293Z,51.325748
2022-09-21T11:17:06.212Z,51.325729
2022-09-21T11:18:06.203Z,51.325760
2022-09-21T11:19:06.338Z,51.325710
2022-09-21T11:20:06.189Z,51.325745
2022-09-21T11:21:06.156Z,51.325752
2022-09-21T11:22:06.128Z,51.325710
2022-09-21T11:23:06.131Z,51.325657
2022-09-21T11:24:06.103Z,51.325691
2022-09-21T11:25:06.111Z,51.325710